createdAt,value
2019-02-24T00:00:56.699Z,70.40
2019-02-24T00:03:44.112Z,71.00
2019-02-24T00:06:24.128Z,71.00
2019-02-24T00:09:06.292Z,71.80
2019-02-24T00:11:48.966Z,71.60
2019-02-24T00:14:32.366Z,71.60
2019-02-24T00:17:14.095Z,70.30
2019-02-24T00:19:56.786Z,70.50
2019-02-24T00:22:50.669Z,71.30
2019-02-24T00:25:36.288Z,71.40
2019-02-24T00:28:17.519Z,73.80
2019-02-24T00:31:00.070Z,72.40
2019-02-24T00:33:47.664Z,73.70
2019-02-24T00:36:37.976Z,73.60
2019-02-24T00:39:27.073Z,72.90
2019-02-24T00:42:06.406Z,72.30
2019-02-24T00:44:50.938Z,74.00
2019-02-24T00:47:39.123Z,71.40
2019-02-24T00:50:26.212Z,70.50
2019-02-24T00:53:18.906Z,71.20
2019-02-24T00:56:06.989Z,73.80
2019-02-24T00:58:50.738Z,72.90
2019-02-24T01:01:34.941Z,73.80
2019-02-24T01:04:23.798Z,72.80
2019-02-24T01:07:11.049Z,73.20
2019-02-24T01:10:14.198Z,73.30
2019-02-24T01:12:54.924Z,73.40
2019-02-24T01:15:39.862Z,72.50
2019-02-24T01:18:27.801Z,76.90
2019-02-24T01:21:09.060Z,70.40
2019-02-24T01:23:48.545Z,69.80
2019-02-24T01:26:41.115Z,74.90
2019-02-24T01:29:21.697Z,73.00
2019-02-24T01:32:33.164Z,74.40
2019-02-24T01:35:17.596Z,74.30
2019-02-24T01:38:12.294Z,71.30
2019-02-24T01:40:58.443Z,69.70
2019-02-24T01:43:49.977Z,72.30
2019-02-24T01:46:39.145Z,73.90
2019-02-24T01:49:25.162Z,72.90
2019-02-24T01:52:08.125Z,74.00
2019-02-24T01:54:53.963Z,74.70
2019-02-24T01:57:37.321Z,72.00
2019-02-24T02:00:35.232Z,72.40
2019-02-24T02:03:22.513Z,73.30
2019-02-24T02:06:15.309Z,70.00
2019-02-24T02:09:05.830Z,71.40
2019-02-24T02:12:03.382Z,70.40
2019-02-24T02:15:00.163Z,73.40
2019-02-24T02:17:44.877Z,75.10
2019-02-24T02:20:25.110Z,70.50
2019-02-24T02:23:19.883Z,70.90
2019-02-24T02:26:06.794Z,73.40
2019-02-24T02:28:56.291Z,69.80
2019-02-24T02:31:42.991Z,70.20
2019-02-24T02:34:40.493Z,70.70
2019-02-24T02:37:33.212Z,71.40
2019-02-24T02:40:47.751Z,70.10
2019-02-24T02:43:26.185Z,70.20
2019-02-24T02:46:09.201Z,70.90
2019-02-24T02:49:04.569Z,71.10
2019-02-24T02:52:08.838Z,73.70
2019-02-24T02:54:59.339Z,74.30
2019-02-24T02:57:46.713Z,71.20
2019-02-24T03:01:00.209Z,70.50
2019-02-24T03:03:45.866Z,72.30
2019-02-24T03:06:52.710Z,70.60
2019-02-24T03:09:40.571Z,72.30
2019-02-24T03:12:25.696Z,72.70
2019-02-24T03:15:38.384Z,70.50
2019-02-24T03:18:25.569Z,70.50
2019-02-24T03:21:22.854Z,70.40
2019-02-24T03:24:12.188Z,70.20
2019-02-24T03:27:19.036Z,70.20
2019-02-24T03:30:23.141Z,72.30
2019-02-24T03:33:21.259Z,72.90
2019-02-24T03:36:12.835Z,69.90
2019-02-24T03:39:15.725Z,69.30
2019-02-24T03:42:17.290Z,70.10
2019-02-24T03:45:06.121Z,70.50
2019-02-24T03:47:58.665Z,70.20
2019-02-24T03:50:56.144Z,69.40
2019-02-24T03:53:57.275Z,69.30
2019-02-24T03:56:46.058Z,69.70
2019-02-24T03:59:29.812Z,68.90
2019-02-24T04:02:12.010Z,70.10
2019-02-24T04:04:55.536Z,71.00
2019-02-24T04:07:42.091Z,70.90
2019-02-24T04:10:33.652Z,68.90
2019-02-24T04:13:19.578Z,68.60
2019-02-24T04:16:09.982Z,68.40
2019-02-24T04:19:01.127Z,68.30
2019-02-24T04:21:47.823Z,69.70
2019-02-24T04:24:37.454Z,70.60
2019-02-24T04:27:26.043Z,69.70
2019-02-24T04:30:12.695Z,68.50
2019-02-24T04:33:02.382Z,70.70
2019-02-24T04:36:13.076Z,69.00
2019-02-24T04:38:56.012Z,69.70
2019-02-24T04:41:46.678Z,69.30
2019-02-24T04:44:28.684Z,68.80
2019-02-24T04:47:37.396Z,72.20
2019-02-24T04:50:35.001Z,72.60
2019-02-24T04:53:46.234Z,72.40
2019-02-24T04:56:41.966Z,69.50
2019-02-24T04:59:42.200Z,70.10
2019-02-24T05:02:27.673Z,69.70
2019-02-24T05:05:16.122Z,69.70
2019-02-24T05:08:31.822Z,71.10
2019-02-24T05:11:54.800Z,71.10
2019-02-24T05:15:13.562Z,69.80
2019-02-24T05:18:00.389Z,69.90
2019-02-24T05:20:49.690Z,71.60
2019-02-24T05:23:55.002Z,70.00
2019-02-24T05:26:56.895Z,69.20
2019-02-24T05:29:57.260Z,69.40
2019-02-24T05:32:38.253Z,69.60
2019-02-24T05:35:37.661Z,69.10
2019-02-24T05:38:35.655Z,69.70
2019-02-24T05:41:22.262Z,69.70
2019-02-24T05:44:11.268Z,71.00
2019-02-24T05:47:11.990Z,69.50
2019-02-24T05:50:20.332Z,69.30
2019-02-24T05:53:21.640Z,72.40
2019-02-24T05:56:13.907Z,70.90
2019-02-24T05:58:59.667Z,71.00
2019-02-24T06:01:42.525Z,68.80
2019-02-24T06:04:36.523Z,69.70
2019-02-24T06:07:43.502Z,69.20
2019-02-24T06:10:33.739Z,74.40
2019-02-24T06:13:45.548Z,70.20
2019-02-24T06:16:53.469Z,68.80
2019-02-24T06:19:42.200Z,68.70
2019-02-24T06:22:28.094Z,72.50
2019-02-24T06:25:29.062Z,69.70
2019-02-24T06:28:32.410Z,69.00
2019-02-24T06:31:29.009Z,70.20
2019-02-24T06:34:36.957Z,69.30
2019-02-24T06:37:36.628Z,69.10
2019-02-24T06:40:23.879Z,68.90
2019-02-24T06:43:29.189Z,69.60
2019-02-24T06:46:16.265Z,69.10
2019-02-24T06:49:21.359Z,68.90
2019-02-24T06:52:22.559Z,69.60
2019-02-24T06:55:13.167Z,68.90
2019-02-24T06:58:30.460Z,70.00
2019-02-24T07:01:19.003Z,71.50
2019-02-24T07:04:07.459Z,69.90
2019-02-24T07:07:04.106Z,72.50
2019-02-24T07:09:56.397Z,72.70
2019-02-24T07:12:50.064Z,69.30
2019-02-24T07:15:42.439Z,69.60
2019-02-24T07:18:32.279Z,70.00
2019-02-24T07:21:21.205Z,71.20
2019-02-24T07:24:34.809Z,69.70
2019-02-24T07:27:16.805Z,69.80
2019-02-24T07:30:01.246Z,70.30
2019-02-24T07:32:49.117Z,71.10
2019-02-24T07:35:30.902Z,70.70
2019-02-24T07:38:28.018Z,71.20
2019-02-24T07:41:21.572Z,71.10
2019-02-24T07:44:11.326Z,71.60
2019-02-24T07:46:51.955Z,71.30
2019-02-24T07:49:30.631Z,71.60
2019-02-24T07:52:20.971Z,72.00
2019-02-24T07:55:16.790Z,72.50
2019-02-24T07:58:05.373Z,73.30
2019-02-24T08:01:08.737Z,73.80
2019-02-24T08:03:53.146Z,74.00
2019-02-24T08:06:58.651Z,74.20
2019-02-24T08:09:55.462Z,75.50
2019-02-24T08:12:53.050Z,73.70
2019-02-24T08:15:39.223Z,74.80
2019-02-24T08:18:49.048Z,74.40
2019-02-24T08:21:28.625Z,74.80
2019-02-24T08:24:25.248Z,75.30
2019-02-24T08:27:26.315Z,75.10
2019-02-24T08:30:19.076Z,75.50
2019-02-24T08:33:20.670Z,75.50
2019-02-24T08:40:01.162Z,74.00
2019-02-24T08:43:11.833Z,73.60
2019-02-24T08:46:17.816Z,73.70
2019-02-24T08:49:31.598Z,74.00
2019-02-24T08:52:22.006Z,75.00
2019-02-24T08:55:45.977Z,74.00
2019-02-24T08:58:33.416Z,74.60
2019-02-24T09:01:29.104Z,74.90
2019-02-24T09:04:35.689Z,74.90
2019-02-24T09:07:23.277Z,74.40
2019-02-24T09:10:09.508Z,74.90
2019-02-24T09:13:03.065Z,75.70
2019-02-24T09:15:48.804Z,74.40
2019-02-24T09:18:31.701Z,73.20
2019-02-24T09:21:20.594Z,73.00
2019-02-24T09:24:20.920Z,72.90
2019-02-24T09:27:03.497Z,73.40
2019-02-24T09:29:45.433Z,75.20
2019-02-24T09:32:48.698Z,73.70
2019-02-24T09:35:37.821Z,76.10
2019-02-24T09:38:28.293Z,74.80
2019-02-24T09:41:30.063Z,73.50
2019-02-24T09:44:20.261Z,73.90
2019-02-24T09:47:17.305Z,74.10
2019-02-24T09:49:59.088Z,75.00
2019-02-24T09:52:51.226Z,73.10
2019-02-24T09:55:37.796Z,73.10
2019-02-24T09:58:25.976Z,73.60
2019-02-24T10:01:11.024Z,73.40
2019-02-24T10:04:04.307Z,73.30
2019-02-24T10:06:50.161Z,73.50
2019-02-24T10:09:40.140Z,73.40
2019-02-24T10:12:29.992Z,73.40
2019-02-24T10:15:14.156Z,73.20
2019-02-24T10:17:58.198Z,73.80
2019-02-24T10:20:42.402Z,73.70
2019-02-24T10:23:33.713Z,72.50
2019-02-24T10:26:24.669Z,74.60
2019-02-24T10:29:17.040Z,73.10
2019-02-24T10:32:06.979Z,72.80
2019-02-24T10:34:56.157Z,73.00
2019-02-24T10:37:38.616Z,73.70
2019-02-24T10:40:29.617Z,73.10
2019-02-24T10:43:16.471Z,73.10
2019-02-24T10:45:59.388Z,74.10
2019-02-24T10:48:42.142Z,75.10
2019-02-24T10:51:28.301Z,75.40
2019-02-24T10:54:10.995Z,76.10
2019-02-24T10:56:59.505Z,73.70
2019-02-24T10:59:48.665Z,74.00
2019-02-24T11:02:27.505Z,75.80
2019-02-24T11:05:22.729Z,74.00
2019-02-24T11:08:30.428Z,73.50
2019-02-24T11:11:21.004Z,73.80
2019-02-24T11:14:16.969Z,75.70
2019-02-24T11:17:03.784Z,74.80
2019-02-24T11:19:57.785Z,73.80
2019-02-24T11:22:50.787Z,74.30
2019-02-24T11:25:50.900Z,74.50
2019-02-24T11:28:34.418Z,74.50
2019-02-24T11:31:27.298Z,74.50
2019-02-24T11:34:33.028Z,74.20
2019-02-24T11:37:28.389Z,75.10
2019-02-24T11:40:28.265Z,76.60
2019-02-24T11:43:21.310Z,76.20
2019-02-24T11:46:07.355Z,76.60
2019-02-24T11:49:04.079Z,76.10
2019-02-24T11:52:03.497Z,76.20
2019-02-24T11:54:52.144Z,75.20
2019-02-24T11:57:52.093Z,73.50
2019-02-24T12:00:55.109Z,73.90
2019-02-24T12:03:44.015Z,76.80
2019-02-24T12:06:57.330Z,78.00
2019-02-24T12:10:21.769Z,74.60
2019-02-24T12:13:17.403Z,74.10
2019-02-24T12:15:57.782Z,74.00
2019-02-24T12:18:45.812Z,74.70
2019-02-24T12:21:38.876Z,74.60
2019-02-24T12:24:30.913Z,74.60
2019-02-24T12:27:30.377Z,74.30
2019-02-24T12:33:36.563Z,74.30
2019-02-24T12:40:22.229Z,75.40
2019-02-24T12:43:23.963Z,76.20
2019-02-24T12:46:24.924Z,73.80
2019-02-24T12:49:20.249Z,73.60
2019-02-24T12:52:40.189Z,74.00
2019-02-24T12:55:32.143Z,74.00
2019-02-24T12:58:53.427Z,74.80
2019-02-24T13:01:52.782Z,74.70
2019-02-24T13:04:42.385Z,74.70
2019-02-24T13:07:47.030Z,74.70
2019-02-24T13:10:42.894Z,74.00
2019-02-24T13:13:46.350Z,73.40
2019-02-24T13:17:14.353Z,73.50
2019-02-24T13:20:30.406Z,73.90
2019-02-24T13:23:27.065Z,74.30
2019-02-24T13:26:58.727Z,74.10
2019-02-24T13:33:38.594Z,74.20
2019-02-24T13:36:30.013Z,73.70
2019-02-24T13:39:39.261Z,73.60
2019-02-24T13:42:44.960Z,74.00
2019-02-24T13:45:41.978Z,74.60
2019-02-24T13:52:15.510Z,73.70
2019-02-24T13:55:39.363Z,74.20
2019-02-24T13:58:31.783Z,73.90
2019-02-24T14:01:46.308Z,73.70
2019-02-24T14:05:14.191Z,73.50
2019-02-24T14:08:11.698Z,74.00
2019-02-24T14:11:30.600Z,74.30
2019-02-24T14:14:57.391Z,73.90
2019-02-24T14:18:18.156Z,73.90
2019-02-24T14:21:58.465Z,74.40
2019-02-24T14:25:31.881Z,74.80
2019-02-24T14:28:55.833Z,75.00
2019-02-24T14:35:36.713Z,73.60
2019-02-24T14:38:34.931Z,73.80
2019-02-24T14:41:45.647Z,73.80
2019-02-24T14:44:59.854Z,74.00
2019-02-24T14:48:07.869Z,73.80
2019-02-24T14:55:01.564Z,73.70
2019-02-24T14:57:55.190Z,73.60
2019-02-24T15:01:00.577Z,74.00
2019-02-24T15:04:08.134Z,74.40
2019-02-24T15:10:18.089Z,74.00
2019-02-24T15:17:30.680Z,74.00
2019-02-24T15:20:40.144Z,74.80
2019-02-24T15:24:10.561Z,74.40
2019-02-24T15:27:23.056Z,74.70
2019-02-24T15:30:44.502Z,74.20
2019-02-24T15:33:58.534Z,74.50
2019-02-24T15:37:08.061Z,73.70
2019-02-24T15:40:28.571Z,73.80
2019-02-24T15:43:28.319Z,73.80
2019-02-24T15:46:55.107Z,73.50
2019-02-24T15:50:05.612Z,73.90
2019-02-24T15:53:02.301Z,73.90
2019-02-24T15:56:09.315Z,74.80
2019-02-24T15:59:07.545Z,73.70
2019-02-24T16:02:18.902Z,74.00
2019-02-24T16:05:24.101Z,74.40
2019-02-24T16:08:24.901Z,74.60
2019-02-24T16:11:34.365Z,74.30
2019-02-24T16:14:40.481Z,74.60
2019-02-24T16:18:00.270Z,74.30
2019-02-24T16:20:48.461Z,74.20
2019-02-24T16:23:44.375Z,74.20
2019-02-24T16:26:38.330Z,74.50
2019-02-24T16:29:58.173Z,74.40
2019-02-24T16:32:46.906Z,74.60
2019-02-24T16:35:39.599Z,74.50
2019-02-24T16:38:32.876Z,74.70
2019-02-24T16:41:22.561Z,74.70
2019-02-24T16:44:16.701Z,74.70
2019-02-24T16:47:41.515Z,74.40
2019-02-24T16:50:47.302Z,74.40
2019-02-24T16:54:17.364Z,74.70
2019-02-24T16:56:43.786Z,74.80
2019-02-24T16:59:29.206Z,74.80
2019-02-24T17:02:22.583Z,74.80
2019-02-24T17:05:14.804Z,74.80
2019-02-24T17:08:09.151Z,74.70
2019-02-24T17:11:16.550Z,73.90
2019-02-24T17:14:06.436Z,74.30
2019-02-24T17:17:01.429Z,74.00
2019-02-24T17:19:44.123Z,74.00
2019-02-24T17:22:26.728Z,74.10
2019-02-24T17:25:12.641Z,73.70
2019-02-24T17:28:03.000Z,74.30
2019-02-24T17:30:53.526Z,74.00
2019-02-24T17:34:13.241Z,73.20
2019-02-24T17:37:00.630Z,74.10
2019-02-24T17:39:40.999Z,74.30
2019-02-24T17:42:24.645Z,74.10
2019-02-24T17:45:16.446Z,74.50
2019-02-24T17:47:59.011Z,74.60
2019-02-24T17:50:51.818Z,74.60
2019-02-24T17:54:11.714Z,74.60
2019-02-24T17:57:25.719Z,74.40
2019-02-24T18:00:10.847Z,74.60
2019-02-24T18:02:56.476Z,74.40
2019-02-24T18:05:45.781Z,74.10
2019-02-24T18:08:28.551Z,74.50
2019-02-24T18:11:23.473Z,74.60
2019-02-24T18:14:06.306Z,74.50
2019-02-24T18:17:36.091Z,74.30
2019-02-24T18:20:17.508Z,74.60
2019-02-24T18:23:06.317Z,74.50
2019-02-24T18:25:57.626Z,75.00
2019-02-24T18:28:49.097Z,75.30
2019-02-24T18:31:41.790Z,74.90
2019-02-24T18:34:24.812Z,74.80
2019-02-24T18:37:09.836Z,74.70
2019-02-24T18:40:12.368Z,74.60
2019-02-24T18:43:00.476Z,74.30
2019-02-24T18:45:43.471Z,74.60
2019-02-24T18:48:25.691Z,74.50
2019-02-24T18:51:10.782Z,74.50
2019-02-24T18:53:53.767Z,74.50
2019-02-24T18:56:37.342Z,74.50
2019-02-24T18:59:22.455Z,74.50
2019-02-24T19:02:21.211Z,74.50
2019-02-24T19:05:04.447Z,74.50
2019-02-24T19:08:12.087Z,74.60
2019-02-24T19:10:56.000Z,74.40
2019-02-24T19:13:39.530Z,74.50
2019-02-24T19:16:23.629Z,74.50
2019-02-24T19:19:04.000Z,74.40
2019-02-24T19:21:44.025Z,74.30
2019-02-24T19:24:55.753Z,74.40
2019-02-24T19:27:39.461Z,74.80
2019-02-24T19:30:20.342Z,74.50
2019-02-24T19:32:59.514Z,74.70
2019-02-24T19:35:44.207Z,74.50
2019-02-24T19:38:27.239Z,74.50
2019-02-24T19:41:16.300Z,74.60
2019-02-24T19:44:01.571Z,74.50
2019-02-24T19:46:44.119Z,74.50
2019-02-24T19:49:28.699Z,74.40
2019-02-24T19:52:11.588Z,74.40
2019-02-24T19:54:53.916Z,74.50
2019-02-24T19:57:38.027Z,74.80
2019-02-24T20:00:21.630Z,74.70
2019-02-24T20:03:17.346Z,74.60
2019-02-24T20:06:00.454Z,74.60
2019-02-24T20:09:02.258Z,75.00
2019-02-24T20:11:45.284Z,74.90
2019-02-24T20:14:24.787Z,74.40
2019-02-24T20:17:07.115Z,75.70
2019-02-24T20:19:48.109Z,74.90
2019-02-24T20:22:31.815Z,75.10
2019-02-24T20:25:21.078Z,74.90
2019-02-24T20:28:05.741Z,74.60
2019-02-24T20:31:07.598Z,74.50
2019-02-24T20:33:51.290Z,74.20
2019-02-24T20:36:31.669Z,74.50
2019-02-24T20:39:16.906Z,74.60
2019-02-24T20:42:00.818Z,74.50
2019-02-24T20:44:43.351Z,74.10
2019-02-24T20:47:35.351Z,74.40
2019-02-24T20:50:16.537Z,74.20
2019-02-24T20:53:13.402Z,74.00
2019-02-24T20:55:55.169Z,74.50
2019-02-24T20:58:38.682Z,74.40
2019-02-24T21:01:22.198Z,74.50
2019-02-24T21:04:02.434Z,74.20
2019-02-24T21:06:46.082Z,74.50
2019-02-24T21:09:47.105Z,74.20
2019-02-24T21:12:27.131Z,74.20
2019-02-24T21:15:33.167Z,74.10
2019-02-24T21:18:15.074Z,74.50
2019-02-24T21:20:55.319Z,74.00
2019-02-24T21:23:34.294Z,74.20
2019-02-24T21:26:13.161Z,74.10
2019-02-24T21:28:51.890Z,74.20
2019-02-24T21:31:55.500Z,74.20
2019-02-24T21:34:37.531Z,74.40
2019-02-24T21:37:41.008Z,74.30
2019-02-24T21:40:23.342Z,74.30
2019-02-24T21:43:08.009Z,74.30
2019-02-24T21:45:52.183Z,74.70
2019-02-24T21:48:34.366Z,74.60
2019-02-24T21:51:15.132Z,75.00
2019-02-24T21:54:08.437Z,74.90
2019-02-24T21:56:50.721Z,74.60
2019-02-24T21:59:57.783Z,74.80
2019-02-24T22:02:41.012Z,75.00
2019-02-24T22:05:20.108Z,75.00
2019-02-24T22:08:03.817Z,75.30
2019-02-24T22:10:47.664Z,74.90
2019-02-24T22:13:28.272Z,75.20
2019-02-24T22:16:21.955Z,76.20
2019-02-24T22:19:01.878Z,75.10
2019-02-24T22:25:04.506Z,75.10
2019-02-24T22:27:44.630Z,75.20
2019-02-24T22:30:25.104Z,75.20
2019-02-24T22:33:09.261Z,75.10
2019-02-24T22:35:52.072Z,75.30
2019-02-24T22:38:39.440Z,75.60
2019-02-24T22:41:19.481Z,75.50
2019-02-24T22:44:22.984Z,75.60
2019-02-24T22:47:03.260Z,75.70
2019-02-24T22:49:44.977Z,75.40
2019-02-24T22:52:27.707Z,75.60
2019-02-24T22:55:11.548Z,75.40
2019-02-24T22:57:55.849Z,75.50
2019-02-24T23:01:13.467Z,75.30
2019-02-24T23:03:59.021Z,75.10
2019-02-24T23:06:47.399Z,75.40
2019-02-24T23:09:28.972Z,75.30
2019-02-24T23:12:09.581Z,75.10
2019-02-24T23:14:51.243Z,75.50
2019-02-24T23:17:34.871Z,76.40
2019-02-24T23:20:15.094Z,76.20
2019-02-24T23:23:15.244Z,75.90
2019-02-24T23:25:55.999Z,76.50
2019-02-24T23:28:44.449Z,77.30
2019-02-24T23:31:30.019Z,77.40
2019-02-24T23:34:10.712Z,76.80
2019-02-24T23:36:53.207Z,79.20
2019-02-24T23:39:37.122Z,80.80
2019-02-24T23:42:20.498Z,79.10
2019-02-24T23:45:27.466Z,80.30
2019-02-24T23:48:15.413Z,78.90
2019-02-24T23:51:09.781Z,78.50
2019-02-24T23:53:53.189Z,78.40
2019-02-24T23:56:40.080Z,77.20
2019-02-24T23:59:23.305Z,78.70
